createdAt,value
2018-07-28T06:00:23.857Z,25.16
2018-07-28T06:01:51.791Z,25.44
2018-07-28T06:03:18.278Z,25.72
2018-07-28T06:04:45.712Z,25.83
2018-07-28T06:06:13.101Z,25.98
2018-07-28T06:07:40.611Z,26.06
2018-07-28T06:09:08.047Z,26.20
2018-07-28T06:10:35.416Z,26.36
2018-07-28T06:12:03.089Z,26.42
2018-07-28T06:13:30.889Z,26.34
2018-07-28T06:14:58.064Z,26.23
2018-07-28T06:16:26.537Z,26.09
2018-07-28T06:17:53.195Z,25.94
2018-07-28T06:19:20.485Z,25.85
2018-07-28T06:20:49.094Z,25.82
2018-07-28T06:22:16.552Z,25.80
2018-07-28T06:23:44.105Z,25.79
2018-07-28T06:25:10.385Z,25.60
2018-07-28T06:26:38.081Z,25.60
2018-07-28T06:28:04.590Z,25.60
2018-07-28T06:29:31.945Z,25.53
2018-07-28T06:31:00.041Z,25.42
2018-07-28T06:32:26.625Z,25.35
2018-07-28T06:33:55.229Z,25.36
2018-07-28T06:35:21.773Z,25.33
2018-07-28T06:36:50.079Z,25.28
2018-07-28T06:38:16.599Z,25.30
2018-07-28T06:39:44.104Z,25.28
2018-07-28T06:41:11.549Z,25.27
2018-07-28T06:42:39.108Z,25.29
2018-07-28T06:44:06.542Z,25.29
2018-07-28T06:45:33.810Z,25.32
2018-07-28T06:47:01.461Z,25.44
2018-07-28T06:48:30.026Z,25.49
2018-07-28T06:49:56.753Z,25.64
2018-07-28T06:51:24.199Z,25.68
2018-07-28T06:52:51.764Z,25.75
2018-07-28T06:54:20.322Z,25.75
2018-07-28T06:55:46.861Z,25.69
2018-07-28T06:57:14.367Z,25.67
2018-07-28T06:58:42.891Z,25.60
2018-07-28T07:00:09.493Z,25.57
2018-07-28T07:01:36.854Z,25.57
2018-07-28T07:03:04.141Z,25.66
2018-07-28T07:04:31.756Z,25.76
2018-07-28T07:05:59.479Z,25.82
2018-07-28T07:07:25.985Z,25.86
2018-07-28T07:08:53.651Z,25.93
2018-07-28T07:10:22.397Z,26.02
2018-07-28T07:11:48.994Z,26.11
2018-07-28T07:13:17.604Z,26.16
2018-07-28T07:14:45.257Z,26.23
2018-07-28T07:16:12.976Z,26.34
2018-07-28T07:17:39.566Z,26.38
2018-07-28T07:19:07.152Z,26.48
2018-07-28T07:20:34.736Z,26.57
2018-07-28T07:22:02.316Z,26.66
2018-07-28T07:23:29.938Z,26.76
2018-07-28T07:24:57.607Z,26.84
2018-07-28T07:26:25.337Z,26.94
2018-07-28T07:27:52.968Z,26.99
2018-07-28T07:29:20.415Z,27.09
2018-07-28T07:30:48.100Z,27.14
2018-07-28T07:32:15.709Z,27.22
2018-07-28T07:33:43.139Z,27.26
2018-07-28T07:35:10.782Z,27.31
2018-07-28T07:36:37.971Z,27.34
2018-07-28T07:38:06.591Z,27.39
2018-07-28T07:39:32.857Z,27.45
2018-07-28T07:41:01.525Z,27.50
2018-07-28T07:42:29.184Z,27.53
2018-07-28T07:43:55.763Z,27.53
2018-07-28T07:45:23.425Z,27.52
2018-07-28T07:46:51.006Z,27.55
2018-07-28T07:48:18.519Z,27.58
2018-07-28T07:49:46.045Z,27.62
2018-07-28T07:51:14.760Z,27.67
2018-07-28T07:52:41.512Z,27.65
2018-07-28T07:54:08.942Z,27.69
2018-07-28T07:55:36.484Z,27.72
2018-07-28T07:56:57.935Z,27.77
2018-07-28T07:58:31.409Z,27.80
2018-07-28T08:00:00.057Z,27.84
2018-07-28T08:01:26.544Z,27.88
2018-07-28T08:02:54.019Z,27.93
2018-07-28T08:04:21.757Z,28.02
2018-07-28T08:05:49.371Z,28.06
2018-07-28T08:07:17.996Z,28.07
2018-07-28T08:08:45.473Z,28.02
2018-07-28T08:10:11.861Z,27.96
2018-07-28T08:11:39.594Z,28.00
2018-07-28T08:13:07.950Z,28.06
2018-07-28T08:14:34.564Z,28.11
2018-07-28T08:16:02.828Z,28.17
2018-07-28T08:17:29.062Z,28.24
2018-07-28T08:18:56.732Z,28.28
2018-07-28T08:20:25.173Z,28.30
2018-07-28T08:21:51.259Z,28.33
2018-07-28T08:23:18.914Z,28.33
2018-07-28T08:24:46.584Z,28.33
2018-07-28T08:26:14.160Z,28.35
2018-07-28T08:27:41.959Z,28.38
2018-07-28T08:29:10.519Z,28.39
2018-07-28T08:30:37.168Z,28.41
2018-07-28T08:32:04.854Z,28.49
2018-07-28T08:33:32.735Z,28.51
2018-07-28T08:35:00.416Z,28.52
2018-07-28T08:36:29.016Z,28.56
2018-07-28T08:37:55.685Z,28.58
2018-07-28T08:39:23.177Z,28.62
2018-07-28T08:40:50.943Z,28.66
2018-07-28T08:42:18.552Z,28.71
2018-07-28T08:43:45.761Z,28.76
2018-07-28T08:45:13.282Z,28.81
2018-07-28T08:46:41.963Z,28.85
2018-07-28T08:48:08.389Z,28.88
2018-07-28T08:49:36.167Z,28.95
2018-07-28T08:51:03.605Z,28.94
2018-07-28T08:52:31.356Z,28.97
2018-07-28T08:54:00.009Z,29.01
2018-07-28T08:55:26.667Z,29.07
2018-07-28T08:56:54.348Z,29.06
2018-07-28T08:58:23.076Z,29.02
2018-07-28T08:59:50.902Z,29.01
2018-07-28T09:01:17.538Z,29.01
2018-07-28T09:02:44.995Z,29.04
2018-07-28T09:04:12.673Z,29.06
2018-07-28T09:05:41.465Z,29.07
2018-07-28T09:07:08.087Z,29.05
2018-07-28T09:08:36.704Z,29.14
2018-07-28T09:10:03.395Z,29.19
2018-07-28T09:11:31.278Z,29.19
2018-07-28T09:12:58.686Z,29.22
2018-07-28T09:14:26.245Z,29.24
2018-07-28T09:15:53.934Z,29.33
2018-07-28T09:17:22.740Z,29.42
2018-07-28T09:18:50.433Z,29.48
2018-07-28T09:20:17.008Z,29.60
2018-07-28T09:21:45.613Z,29.69
2018-07-28T09:23:12.316Z,29.74
2018-07-28T09:24:39.860Z,29.72
2018-07-28T09:26:08.551Z,29.66
2018-07-28T09:27:34.870Z,29.67
2018-07-28T09:29:02.556Z,29.64
2018-07-28T09:30:30.129Z,29.58
2018-07-28T09:31:57.555Z,29.60
2018-07-28T09:33:25.316Z,29.60
2018-07-28T09:34:52.960Z,29.51
2018-07-28T09:36:21.517Z,29.48
2018-07-28T09:37:48.102Z,29.50
2018-07-28T09:39:15.764Z,29.49
2018-07-28T09:40:43.378Z,29.56
2018-07-28T09:42:10.803Z,29.62
2018-07-28T09:43:38.451Z,29.66
2018-07-28T09:45:05.957Z,29.68
2018-07-28T09:46:33.465Z,29.74
2018-07-28T09:48:01.977Z,29.78
2018-07-28T09:49:28.674Z,29.80
2018-07-28T09:50:56.019Z,29.81
2018-07-28T09:52:23.666Z,29.81
2018-07-28T09:53:51.058Z,29.81
2018-07-28T09:55:18.656Z,29.80
2018-07-28T09:56:47.296Z,29.82
2018-07-28T09:58:14.655Z,29.74
2018-07-28T09:59:41.471Z,29.76
2018-07-28T10:01:09.059Z,29.68
2018-07-28T10:02:36.825Z,29.71
2018-07-28T10:04:04.207Z,29.75
2018-07-28T10:05:33.014Z,29.83
2018-07-28T10:06:59.617Z,29.89
2018-07-28T10:08:27.192Z,29.91
2018-07-28T10:09:55.887Z,29.97
2018-07-28T10:11:22.652Z,29.88
2018-07-28T10:12:50.081Z,29.78
2018-07-28T10:14:17.740Z,29.80
2018-07-28T10:15:44.967Z,29.83
2018-07-28T10:17:12.859Z,29.92
2018-07-28T10:18:40.479Z,30.04
2018-07-28T10:20:08.189Z,30.17
2018-07-28T10:21:35.896Z,30.23
2018-07-28T10:23:03.555Z,30.27
2018-07-28T10:24:30.977Z,30.27
2018-07-28T10:25:58.711Z,30.30
2018-07-28T10:27:26.348Z,30.36
2018-07-28T10:28:54.046Z,30.46
2018-07-28T10:30:21.690Z,30.57
2018-07-28T10:31:49.466Z,30.70
2018-07-28T10:33:17.218Z,30.81
2018-07-28T10:34:45.782Z,30.89
2018-07-28T10:36:12.361Z,30.93
2018-07-28T10:37:41.075Z,30.89
2018-07-28T10:39:07.584Z,30.81
2018-07-28T10:40:35.287Z,30.78
2018-07-28T10:42:02.748Z,30.79
2018-07-28T10:43:30.127Z,30.85
2018-07-28T10:44:57.554Z,30.86
2018-07-28T10:46:25.172Z,30.91
2018-07-28T10:47:52.860Z,30.96
2018-07-28T10:49:20.539Z,31.01
2018-07-28T10:50:48.142Z,31.07
2018-07-28T10:52:16.838Z,31.04
2018-07-28T10:53:43.442Z,31.07
2018-07-28T10:55:11.138Z,31.13
2018-07-28T10:56:38.906Z,31.15
2018-07-28T10:58:06.564Z,31.11
2018-07-28T10:59:34.122Z,30.90
2018-07-28T11:01:01.511Z,30.73
2018-07-28T11:02:28.916Z,30.80
2018-07-28T11:03:56.690Z,30.90
2018-07-28T11:05:25.351Z,31.04
2018-07-28T11:06:52.095Z,31.23
2018-07-28T11:08:19.846Z,31.45
2018-07-28T11:09:47.626Z,31.67
2018-07-28T11:11:15.218Z,31.71
2018-07-28T11:12:42.948Z,31.83
2018-07-28T11:14:13.181Z,31.86
2018-07-28T11:15:38.975Z,32.00
2018-07-28T11:17:06.606Z,32.17
2018-07-28T11:18:34.376Z,32.22
2018-07-28T11:20:01.085Z,32.24
2018-07-28T11:21:29.875Z,32.36
2018-07-28T11:22:57.478Z,32.37
2018-07-28T11:24:25.270Z,32.53
2018-07-28T11:25:51.931Z,32.63
2018-07-28T11:27:19.745Z,32.55
2018-07-28T11:28:47.376Z,32.23
2018-07-28T11:30:15.119Z,31.93
2018-07-28T11:31:42.599Z,31.73
2018-07-28T11:33:10.308Z,31.69
2018-07-28T11:34:37.965Z,31.83
2018-07-28T11:36:05.523Z,32.13
2018-07-28T11:37:33.258Z,32.42
2018-07-28T11:39:00.786Z,32.61
2018-07-28T11:40:29.538Z,32.75
2018-07-28T11:41:56.295Z,32.94
2018-07-28T11:43:23.778Z,33.20
2018-07-28T11:44:51.531Z,33.39
2018-07-28T11:46:20.128Z,33.60
2018-07-28T11:47:46.834Z,33.72
2018-07-28T11:49:14.370Z,33.84
2018-07-28T11:50:42.145Z,33.99
2018-07-28T11:52:09.826Z,34.11
2018-07-28T11:53:37.534Z,34.00
2018-07-28T11:55:04.771Z,33.84
2018-07-28T11:56:32.633Z,33.52
2018-07-28T11:58:00.219Z,33.29
2018-07-28T11:59:28.946Z,33.11
2018-07-28T12:00:55.717Z,33.11
2018-07-28T12:02:23.426Z,33.35
2018-07-28T12:03:51.301Z,33.57
2018-07-28T12:05:19.001Z,33.86
2018-07-28T12:06:46.744Z,33.81
2018-07-28T12:08:14.381Z,33.82
2018-07-28T12:09:41.910Z,33.87
2018-07-28T12:11:09.425Z,33.65
2018-07-28T12:12:37.163Z,33.29
2018-07-28T12:14:05.575Z,32.96
2018-07-28T12:15:32.287Z,32.91
2018-07-28T12:16:59.876Z,33.08
2018-07-28T12:18:27.679Z,33.44
2018-07-28T12:19:55.035Z,33.68
2018-07-28T12:21:22.712Z,33.70
2018-07-28T12:22:50.470Z,33.92
2018-07-28T12:24:19.115Z,34.04
2018-07-28T12:25:45.678Z,34.30
2018-07-28T12:27:13.373Z,34.57
2018-07-28T12:28:41.055Z,34.35
2018-07-28T12:30:08.826Z,34.11
2018-07-28T12:31:36.494Z,33.91
2018-07-28T12:33:05.116Z,33.53
2018-07-28T12:34:31.878Z,33.41
2018-07-28T12:35:59.607Z,33.59
2018-07-28T12:37:27.303Z,33.74
2018-07-28T12:38:55.071Z,33.74
2018-07-28T12:40:22.783Z,33.83
2018-07-28T12:41:50.187Z,33.87
2018-07-28T12:43:18.907Z,34.04
2018-07-28T12:44:45.568Z,34.20
2018-07-28T12:46:13.262Z,34.17
2018-07-28T12:47:41.184Z,34.13
2018-07-28T12:49:08.920Z,34.02
2018-07-28T12:50:37.606Z,34.02
2018-07-28T12:52:03.936Z,33.82
2018-07-28T12:53:31.816Z,33.64
2018-07-28T12:54:59.622Z,33.79
2018-07-28T12:56:27.398Z,33.94
2018-07-28T12:57:54.938Z,33.91
2018-07-28T12:59:22.552Z,34.03
2018-07-28T13:00:50.201Z,34.15
2018-07-28T13:02:17.749Z,34.24
2018-07-28T13:03:45.394Z,34.28
2018-07-28T13:05:13.122Z,34.34
2018-07-28T13:06:40.707Z,34.35
2018-07-28T13:08:08.231Z,34.46
2018-07-28T13:09:35.864Z,34.25
2018-07-28T13:11:03.135Z,34.13
2018-07-28T13:12:30.923Z,33.99
2018-07-28T13:13:59.381Z,33.92
2018-07-28T13:15:26.180Z,33.80
2018-07-28T13:16:56.637Z,33.63
2018-07-28T13:18:21.441Z,33.57
2018-07-28T13:19:49.140Z,33.47
2018-07-28T13:21:16.897Z,33.36
2018-07-28T13:22:45.679Z,33.15
2018-07-28T13:24:12.381Z,33.04
2018-07-28T13:25:41.029Z,33.00
2018-07-28T13:27:07.692Z,33.05
2018-07-28T13:28:35.334Z,33.00
2018-07-28T13:30:03.013Z,32.95
2018-07-28T13:31:30.544Z,32.87
2018-07-28T13:32:58.053Z,32.68
2018-07-28T13:34:25.777Z,32.41
2018-07-28T13:35:53.294Z,32.29
2018-07-28T13:37:21.128Z,32.20
2018-07-28T13:38:48.822Z,32.17
2018-07-28T13:40:16.543Z,32.20
2018-07-28T13:41:45.267Z,32.26
2018-07-28T13:43:11.881Z,32.36
2018-07-28T13:44:40.605Z,32.35
2018-07-28T13:46:07.212Z,32.33
2018-07-28T13:47:35.979Z,32.31
2018-07-28T13:49:02.253Z,32.33
2018-07-28T13:50:30.017Z,32.36
2018-07-28T13:51:57.299Z,32.26
2018-07-28T13:53:24.984Z,32.09
2018-07-28T13:54:52.660Z,31.86
2018-07-28T13:56:20.325Z,31.79
2018-07-28T13:57:48.055Z,31.77
2018-07-28T13:59:15.720Z,31.80
2018-07-28T14:00:43.351Z,31.87
2018-07-28T14:02:11.125Z,31.94
2018-07-28T14:03:39.751Z,32.04
2018-07-28T14:05:06.436Z,32.13
2018-07-28T14:06:33.884Z,32.20
2018-07-28T14:08:01.525Z,32.32
2018-07-28T14:09:29.016Z,32.39
2018-07-28T14:10:56.711Z,32.44
2018-07-28T14:12:24.422Z,32.51
2018-07-28T14:13:52.227Z,32.56
2018-07-28T14:15:20.079Z,32.63
2018-07-28T14:16:48.767Z,32.70
2018-07-28T14:18:15.504Z,32.75
2018-07-28T14:19:42.749Z,32.75
2018-07-28T14:21:11.528Z,32.77
2018-07-28T14:22:39.286Z,32.78
2018-07-28T14:24:05.918Z,32.78
2018-07-28T14:25:33.634Z,32.75
2018-07-28T14:27:01.417Z,32.73
2018-07-28T14:28:29.121Z,32.73
2018-07-28T14:29:56.633Z,32.74
2018-07-28T14:31:24.449Z,32.76
2018-07-28T14:32:52.123Z,32.79
2018-07-28T14:34:19.607Z,32.79
2018-07-28T14:35:47.134Z,32.77
2018-07-28T14:37:14.726Z,32.76
2018-07-28T14:38:42.449Z,32.73
2018-07-28T14:40:10.212Z,32.72
2018-07-28T14:41:37.888Z,32.72
2018-07-28T14:43:05.621Z,32.71
2018-07-28T14:44:33.206Z,32.70
2018-07-28T14:46:00.808Z,32.68
2018-07-28T14:47:29.441Z,32.66
2018-07-28T14:48:57.022Z,32.64
2018-07-28T14:50:23.909Z,32.61
2018-07-28T14:51:51.613Z,32.59
2018-07-28T14:53:19.186Z,32.55
2018-07-28T14:54:46.863Z,32.49
2018-07-28T14:56:14.707Z,32.45
2018-07-28T14:57:43.468Z,32.41
2018-07-28T14:59:11.171Z,32.41
2018-07-28T15:00:37.611Z,32.42
2018-07-28T15:02:05.339Z,32.44
2018-07-28T15:03:33.931Z,32.43
2018-07-28T15:05:00.586Z,32.41
2018-07-28T15:06:28.405Z,32.40
2018-07-28T15:07:56.071Z,32.38
2018-07-28T15:09:23.867Z,32.37
2018-07-28T15:10:51.589Z,32.35
2018-07-28T15:12:19.325Z,32.34
2018-07-28T15:13:47.076Z,32.33
2018-07-28T15:15:14.799Z,32.31
2018-07-28T15:16:42.396Z,32.30
2018-07-28T15:18:10.207Z,32.28
2018-07-28T15:19:37.892Z,32.27
2018-07-28T15:21:06.600Z,32.24
2018-07-28T15:22:33.289Z,32.21
2018-07-28T15:24:02.084Z,32.19
2018-07-28T15:25:29.863Z,32.14
2018-07-28T15:26:56.382Z,32.12
2018-07-28T15:28:24.031Z,32.12
2018-07-28T15:29:51.731Z,32.12
2018-07-28T15:31:20.305Z,32.13
2018-07-28T15:32:48.034Z,32.13
2018-07-28T15:34:14.745Z,32.12
2018-07-28T15:35:42.554Z,32.09
2018-07-28T15:37:10.206Z,32.06
2018-07-28T15:38:37.913Z,32.05
2018-07-28T15:40:06.496Z,32.05
2018-07-28T15:41:33.240Z,32.05
2018-07-28T15:43:01.966Z,32.04
2018-07-28T15:44:29.098Z,32.01
2018-07-28T15:45:55.866Z,31.92
2018-07-28T15:47:23.545Z,31.91
2018-07-28T15:48:51.044Z,31.90
2018-07-28T15:50:18.825Z,31.89
2018-07-28T15:51:46.545Z,31.86
2018-07-28T15:53:15.326Z,31.81
2018-07-28T15:54:41.971Z,31.77
2018-07-28T15:56:10.507Z,31.70
2018-07-28T15:57:37.067Z,31.66
2018-07-28T15:59:04.734Z,31.63
2018-07-28T16:00:32.399Z,31.60
2018-07-28T16:02:01.211Z,31.58
2018-07-28T16:03:27.707Z,31.56
2018-07-28T16:04:55.139Z,31.55
2018-07-28T16:06:23.754Z,31.55
2018-07-28T16:07:50.497Z,31.57
2018-07-28T16:09:19.019Z,31.61
2018-07-28T16:10:45.909Z,31.65
2018-07-28T16:12:13.600Z,31.71
2018-07-28T16:13:42.194Z,31.74
2018-07-28T16:15:09.868Z,31.74
2018-07-28T16:16:36.556Z,31.75
2018-07-28T16:18:04.084Z,31.73
2018-07-28T16:19:31.784Z,31.71
2018-07-28T16:21:00.255Z,31.68
2018-07-28T16:22:26.960Z,31.64
2018-07-28T16:23:55.592Z,31.54
2018-07-28T16:25:22.906Z,31.05
2018-07-28T16:26:50.510Z,30.47
2018-07-28T16:28:17.209Z,29.94
2018-07-28T16:29:45.833Z,29.49
2018-07-28T16:31:12.688Z,29.08
2018-07-28T16:32:40.111Z,28.80
2018-07-28T16:34:07.621Z,28.49
2018-07-28T16:35:35.085Z,28.18
2018-07-28T16:37:02.785Z,28.00
2018-07-28T16:38:30.259Z,27.87
2018-07-28T16:39:57.754Z,27.72
2018-07-28T16:41:24.833Z,27.45
2018-07-28T16:42:52.272Z,27.27
2018-07-28T16:44:21.003Z,27.07
2018-07-28T16:45:47.388Z,26.85
2018-07-28T16:47:14.486Z,26.75
2018-07-28T16:48:42.671Z,26.68
2018-07-28T16:50:09.158Z,26.59
2018-07-28T16:51:37.350Z,26.48
2018-07-28T16:53:03.728Z,26.39
2018-07-28T16:54:32.211Z,26.24
2018-07-28T16:55:59.188Z,26.04
2018-07-28T16:57:26.111Z,25.81
2018-07-28T16:58:53.541Z,25.70
2018-07-28T17:00:21.117Z,25.57
2018-07-28T17:01:48.585Z,25.41
2018-07-28T17:03:15.074Z,25.31
2018-07-28T17:04:43.518Z,25.25
2018-07-28T17:06:10.284Z,25.12
2018-07-28T17:07:38.791Z,25.13
2018-07-28T17:09:05.549Z,25.14
2018-07-28T17:10:33.154Z,25.12
2018-07-28T17:12:01.048Z,25.15
2018-07-28T17:13:28.759Z,25.18
2018-07-28T17:14:56.344Z,25.19
2018-07-28T17:16:24.078Z,25.15
2018-07-28T17:17:51.720Z,25.12
2018-07-28T17:19:19.201Z,25.04
2018-07-28T17:20:46.855Z,24.88
2018-07-28T17:23:31.896Z,24.61
2018-07-28T17:37:35.070Z,24.59
2018-07-28T17:41:17.748Z,24.60
